sensor_id;sensor_type;location;lat;lon;timestamp;P1;durP1;ratioP1;P2;durP2;ratioP2
16282;SDS011;8249;48.708;9.030;2022-12-29T00:01:31;1.50;;;1.50;;
16282;SDS011;8249;48.708;9.030;2022-12-29T00:03:59;1.47;;;1.47;;
16282;SDS011;8249;48.708;9.030;2022-12-29T00:06:26;1.17;;;1.17;;
16282;SDS011;8249;48.708;9.030;2022-12-29T00:08:54;1.27;;;1.27;;
16282;SDS011;8249;48.708;9.030;2022-12-29T00:11:21;1.03;;;1.03;;
16282;SDS011;8249;48.708;9.030;2022-12-29T00:13:50;1.20;;;1.20;;
16282;SDS011;8249;48.708;9.030;2022-12-29T00:16:35;1.67;;;1.57;;
16282;SDS011;8249;48.708;9.030;2022-12-29T00:19:04;1.70;;;1.70;;
16282;SDS011;8249;48.708;9.030;2022-12-29T00:21:52;1.37;;;1.37;;
16282;SDS011;8249;48.708;9.030;2022-12-29T00:24:36;1.10;;;1.10;;
16282;SDS011;8249;48.708;9.030;2022-12-29T00:27:21;0.93;;;0.93;;
16282;SDS011;8249;48.708;9.030;2022-12-29T00:30:07;1.10;;;1.10;;
16282;SDS011;8249;48.708;9.030;2022-12-29T00:32:53;1.10;;;1.10;;
16282;SDS011;8249;48.708;9.030;2022-12-29T00:35:44;1.30;;;1.30;;
16282;SDS011;8249;48.708;9.030;2022-12-29T00:38:18;1.37;;;1.33;;
16282;SDS011;8249;48.708;9.030;2022-12-29T00:41:04;1.00;;;1.00;;
16282;SDS011;8249;48.708;9.030;2022-12-29T00:43:48;1.20;;;1.20;;
16282;SDS011;8249;48.708;9.030;2022-12-29T00:46:35;1.07;;;1.07;;
16282;SDS011;8249;48.708;9.030;2022-12-29T00:49:04;1.07;;;1.07;;
16282;SDS011;8249;48.708;9.030;2022-12-29T00:51:51;1.43;;;1.20;;
16282;SDS011;8249;48.708;9.030;2022-12-29T00:54:21;2.30;;;1.20;;
16282;SDS011;8249;48.708;9.030;2022-12-29T00:56:48;0.93;;;0.93;;
16282;SDS011;8249;48.708;9.030;2022-12-29T00:59:16;1.10;;;1.10;;
16282;SDS011;8249;48.708;9.030;2022-12-29T01:01:44;1.20;;;1.20;;
16282;SDS011;8249;48.708;9.030;2022-12-29T01:04:12;1.20;;;1.20;;
16282;SDS011;8249;48.708;9.030;2022-12-29T01:06:40;1.00;;;1.00;;
16282;SDS011;8249;48.708;9.030;2022-12-29T01:09:09;1.30;;;1.30;;
16282;SDS011;8249;48.708;9.030;2022-12-29T01:11:54;1.20;;;1.20;;
16282;SDS011;8249;48.708;9.030;2022-12-29T01:14:21;1.40;;;1.30;;
16282;SDS011;8249;48.708;9.030;2022-12-29T01:16:49;1.17;;;1.17;;
16282;SDS011;8249;48.708;9.030;2022-12-29T01:19:16;1.07;;;1.07;;
16282;SDS011;8249;48.708;9.030;2022-12-29T01:21:44;1.40;;;1.30;;
16282;SDS011;8249;48.708;9.030;2022-12-29T01:24:13;1.17;;;1.17;;
16282;SDS011;8249;48.708;9.030;2022-12-29T01:26:40;1.03;;;1.03;;
16282;SDS011;8249;48.708;9.030;2022-12-29T01:29:07;1.37;;;1.27;;
16282;SDS011;8249;48.708;9.030;2022-12-29T01:31:34;1.10;;;1.10;;
16282;SDS011;8249;48.708;9.030;2022-12-29T01:34:01;1.03;;;1.03;;
16282;SDS011;8249;48.708;9.030;2022-12-29T01:36:28;1.20;;;1.10;;
16282;SDS011;8249;48.708;9.030;2022-12-29T01:38:57;1.20;;;1.20;;
16282;SDS011;8249;48.708;9.030;2022-12-29T01:41:26;1.00;;;1.00;;
16282;SDS011;8249;48.708;9.030;2022-12-29T01:43:54;1.57;;;1.47;;
16282;SDS011;8249;48.708;9.030;2022-12-29T01:46:25;1.30;;;1.30;;
16282;SDS011;8249;48.708;9.030;2022-12-29T01:48:57;1.23;;;1.23;;
16282;SDS011;8249;48.708;9.030;2022-12-29T01:51:29;2.03;;;1.93;;
16282;SDS011;8249;48.708;9.030;2022-12-29T01:54:01;1.00;;;1.00;;
16282;SDS011;8249;48.708;9.030;2022-12-29T01:56:34;0.90;;;0.90;;
16282;SDS011;8249;48.708;9.030;2022-12-29T01:59:02;1.20;;;1.20;;
16282;SDS011;8249;48.708;9.030;2022-12-29T02:01:36;1.27;;;1.27;;
16282;SDS011;8249;48.708;9.030;2022-12-29T02:04:04;1.27;;;1.27;;
16282;SDS011;8249;48.708;9.030;2022-12-29T02:06:33;1.57;;;1.53;;
16282;SDS011;8249;48.708;9.030;2022-12-29T02:09:04;1.00;;;1.00;;
16282;SDS011;8249;48.708;9.030;2022-12-29T02:11:33;1.73;;;1.63;;
16282;SDS011;8249;48.708;9.030;2022-12-29T02:14:04;1.20;;;1.20;;
16282;SDS011;8249;48.708;9.030;2022-12-29T02:16:38;1.10;;;1.10;;
16282;SDS011;8249;48.708;9.030;2022-12-29T02:19:29;1.57;;;1.47;;
16282;SDS011;8249;48.708;9.030;2022-12-29T02:22:28;4.10;;;1.30;;
16282;SDS011;8249;48.708;9.030;2022-12-29T02:28:16;1.20;;;1.20;;
16282;SDS011;8249;48.708;9.030;2022-12-29T02:31:16;1.10;;;1.10;;
16282;SDS011;8249;48.708;9.030;2022-12-29T02:33:51;1.43;;;1.43;;
16282;SDS011;8249;48.708;9.030;2022-12-29T02:36:31;1.17;;;1.17;;
16282;SDS011;8249;48.708;9.030;2022-12-29T02:39:04;1.00;;;1.00;;
16282;SDS011;8249;48.708;9.030;2022-12-29T02:41:41;1.00;;;1.00;;
16282;SDS011;8249;48.708;9.030;2022-12-29T02:44:19;1.30;;;1.30;;
16282;SDS011;8249;48.708;9.030;2022-12-29T02:46:53;1.20;;;1.20;;
16282;SDS011;8249;48.708;9.030;2022-12-29T02:49:25;1.20;;;1.20;;
16282;SDS011;8249;48.708;9.030;2022-12-29T02:51:58;2.53;;;1.60;;
16282;SDS011;8249;48.708;9.030;2022-12-29T02:54:29;1.20;;;1.20;;
16282;SDS011;8249;48.708;9.030;2022-12-29T02:57:10;1.30;;;1.30;;
16282;SDS011;8249;48.708;9.030;2022-12-29T02:59:39;1.00;;;1.00;;
16282;SDS011;8249;48.708;9.030;2022-12-29T03:05:14;2.87;;;1.30;;
16282;SDS011;8249;48.708;9.030;2022-12-29T03:07:50;0.90;;;0.90;;
16282;SDS011;8249;48.708;9.030;2022-12-29T03:10:30;0.93;;;0.93;;
16282;SDS011;8249;48.708;9.030;2022-12-29T03:13:04;1.10;;;1.10;;
16282;SDS011;8249;48.708;9.030;2022-12-29T03:16:00;1.60;;;1.30;;
16282;SDS011;8249;48.708;9.030;2022-12-29T03:18:44;1.13;;;1.10;;
16282;SDS011;8249;48.708;9.030;2022-12-29T03:21:17;1.43;;;1.33;;
16282;SDS011;8249;48.708;9.030;2022-12-29T03:24:14;0.83;;;0.83;;
16282;SDS011;8249;48.708;9.030;2022-12-29T03:26:45;0.90;;;0.90;;
16282;SDS011;8249;48.708;9.030;2022-12-29T03:29:17;0.90;;;0.90;;
16282;SDS011;8249;48.708;9.030;2022-12-29T03:31:46;1.10;;;1.10;;
16282;SDS011;8249;48.708;9.030;2022-12-29T03:34:17;1.00;;;1.00;;
16282;SDS011;8249;48.708;9.030;2022-12-29T03:36:47;1.10;;;1.10;;
16282;SDS011;8249;48.708;9.030;2022-12-29T03:39:19;0.93;;;0.93;;
16282;SDS011;8249;48.708;9.030;2022-12-29T03:41:49;0.97;;;0.97;;
16282;SDS011;8249;48.708;9.030;2022-12-29T03:44:21;1.00;;;1.00;;
16282;SDS011;8249;48.708;9.030;2022-12-29T03:46:59;2.17;;;1.20;;
16282;SDS011;8249;48.708;9.030;2022-12-29T03:49:28;1.13;;;1.13;;
16282;SDS011;8249;48.708;9.030;2022-12-29T03:51:55;0.80;;;0.80;;
16282;SDS011;8249;48.708;9.030;2022-12-29T03:54:23;1.43;;;1.43;;
16282;SDS011;8249;48.708;9.030;2022-12-29T03:56:51;1.37;;;1.37;;
16282;SDS011;8249;48.708;9.030;2022-12-29T03:59:28;1.10;;;1.10;;
16282;SDS011;8249;48.708;9.030;2022-12-29T04:01:55;1.00;;;1.00;;
16282;SDS011;8249;48.708;9.030;2022-12-29T04:04:23;1.27;;;1.20;;
16282;SDS011;8249;48.708;9.030;2022-12-29T04:06:51;1.07;;;1.07;;
16282;SDS011;8249;48.708;9.030;2022-12-29T04:09:18;1.10;;;1.10;;
16282;SDS011;8249;48.708;9.030;2022-12-29T04:11:48;1.27;;;1.27;;
16282;SDS011;8249;48.708;9.030;2022-12-29T04:14:15;1.40;;;1.40;;
16282;SDS011;8249;48.708;9.030;2022-12-29T04:16:42;1.20;;;1.20;;
16282;SDS011;8249;48.708;9.030;2022-12-29T04:19:09;1.03;;;1.03;;
16282;SDS011;8249;48.708;9.030;2022-12-29T04:21:36;1.50;;;1.40;;
16282;SDS011;8249;48.708;9.030;2022-12-29T04:24:05;1.40;;;1.40;;
16282;SDS011;8249;48.708;9.030;2022-12-29T04:26:36;1.33;;;1.33;;
16282;SDS011;8249;48.708;9.030;2022-12-29T04:29:23;1.30;;;1.30;;
16282;SDS011;8249;48.708;9.030;2022-12-29T04:32:16;1.00;;;1.00;;
16282;SDS011;8249;48.708;9.030;2022-12-29T04:34:47;1.37;;;1.37;;
16282;SDS011;8249;48.708;9.030;2022-12-29T04:37:14;3.23;;;1.13;;
16282;SDS011;8249;48.708;9.030;2022-12-29T04:39:42;0.90;;;0.90;;
16282;SDS011;8249;48.708;9.030;2022-12-29T04:42:10;1.43;;;1.43;;
16282;SDS011;8249;48.708;9.030;2022-12-29T04:44:38;1.10;;;1.10;;
16282;SDS011;8249;48.708;9.030;2022-12-29T04:47:16;1.13;;;1.13;;
16282;SDS011;8249;48.708;9.030;2022-12-29T04:49:56;1.50;;;1.47;;
16282;SDS011;8249;48.708;9.030;2022-12-29T04:52:49;1.00;;;1.00;;
16282;SDS011;8249;48.708;9.030;2022-12-29T04:55:17;0.93;;;0.93;;
16282;SDS011;8249;48.708;9.030;2022-12-29T04:57:44;1.53;;;1.53;;
16282;SDS011;8249;48.708;9.030;2022-12-29T05:00:17;1.00;;;1.00;;
16282;SDS011;8249;48.708;9.030;2022-12-29T05:02:45;1.07;;;1.07;;
16282;SDS011;8249;48.708;9.030;2022-12-29T05:05:13;6.73;;;1.00;;
16282;SDS011;8249;48.708;9.030;2022-12-29T05:07:44;1.10;;;1.10;;
16282;SDS011;8249;48.708;9.030;2022-12-29T05:10:11;1.57;;;1.50;;
16282;SDS011;8249;48.708;9.030;2022-12-29T05:12:40;1.40;;;1.40;;
16282;SDS011;8249;48.708;9.030;2022-12-29T05:15:07;1.50;;;1.40;;
16282;SDS011;8249;48.708;9.030;2022-12-29T05:17:36;1.40;;;1.30;;
16282;SDS011;8249;48.708;9.030;2022-12-29T05:20:03;0.97;;;0.97;;
16282;SDS011;8249;48.708;9.030;2022-12-29T05:22:32;1.20;;;1.20;;
16282;SDS011;8249;48.708;9.030;2022-12-29T05:24:59;1.30;;;1.30;;
16282;SDS011;8249;48.708;9.030;2022-12-29T05:27:27;1.10;;;1.10;;
16282;SDS011;8249;48.708;9.030;2022-12-29T05:30:19;1.10;;;1.10;;
16282;SDS011;8249;48.708;9.030;2022-12-29T05:32:46;1.40;;;1.40;;
16282;SDS011;8249;48.708;9.030;2022-12-29T05:35:14;1.33;;;1.30;;
16282;SDS011;8249;48.708;9.030;2022-12-29T05:37:41;1.00;;;1.00;;
16282;SDS011;8249;48.708;9.030;2022-12-29T05:40:08;1.67;;;1.57;;
16282;SDS011;8249;48.708;9.030;2022-12-29T05:42:36;1.17;;;1.17;;
16282;SDS011;8249;48.708;9.030;2022-12-29T05:45:40;0.90;;;0.90;;
16282;SDS011;8249;48.708;9.030;2022-12-29T05:48:25;1.00;;;1.00;;
16282;SDS011;8249;48.708;9.030;2022-12-29T05:51:13;1.30;;;1.30;;
16282;SDS011;8249;48.708;9.030;2022-12-29T05:53:46;1.00;;;1.00;;
16282;SDS011;8249;48.708;9.030;2022-12-29T05:56:14;0.97;;;0.97;;
16282;SDS011;8249;48.708;9.030;2022-12-29T05:58:41;1.00;;;1.00;;
16282;SDS011;8249;48.708;9.030;2022-12-29T06:01:10;0.97;;;0.97;;
16282;SDS011;8249;48.708;9.030;2022-12-29T06:03:37;1.07;;;1.07;;
16282;SDS011;8249;48.708;9.030;2022-12-29T06:06:05;1.00;;;1.00;;
16282;SDS011;8249;48.708;9.030;2022-12-29T06:08:33;0.93;;;0.93;;
16282;SDS011;8249;48.708;9.030;2022-12-29T06:11:00;1.20;;;1.20;;
16282;SDS011;8249;48.708;9.030;2022-12-29T06:13:27;0.97;;;0.97;;
16282;SDS011;8249;48.708;9.030;2022-12-29T06:15:56;1.23;;;1.20;;
16282;SDS011;8249;48.708;9.030;2022-12-29T06:18:26;1.30;;;1.30;;
16282;SDS011;8249;48.708;9.030;2022-12-29T06:20:54;1.27;;;1.27;;
16282;SDS011;8249;48.708;9.030;2022-12-29T06:23:25;1.13;;;1.13;;
16282;SDS011;8249;48.708;9.030;2022-12-29T06:25:53;0.93;;;0.93;;
16282;SDS011;8249;48.708;9.030;2022-12-29T06:28:20;1.13;;;1.13;;
16282;SDS011;8249;48.708;9.030;2022-12-29T06:30:47;1.00;;;1.00;;
16282;SDS011;8249;48.708;9.030;2022-12-29T06:33:16;1.00;;;1.00;;
16282;SDS011;8249;48.708;9.030;2022-12-29T06:35:44;1.20;;;1.20;;
16282;SDS011;8249;48.708;9.030;2022-12-29T06:38:13;1.37;;;1.37;;
16282;SDS011;8249;48.708;9.030;2022-12-29T06:40:41;1.17;;;1.17;;
16282;SDS011;8249;48.708;9.030;2022-12-29T06:43:18;1.43;;;1.43;;
16282;SDS011;8249;48.708;9.030;2022-12-29T06:46:06;1.47;;;1.47;;
16282;SDS011;8249;48.708;9.030;2022-12-29T06:48:33;1.10;;;1.10;;
16282;SDS011;8249;48.708;9.030;2022-12-29T06:53:45;1.30;;;1.20;;
16282;SDS011;8249;48.708;9.030;2022-12-29T06:56:12;1.03;;;1.03;;
16282;SDS011;8249;48.708;9.030;2022-12-29T06:58:39;1.73;;;1.63;;
16282;SDS011;8249;48.708;9.030;2022-12-29T07:01:06;0.90;;;0.90;;
16282;SDS011;8249;48.708;9.030;2022-12-29T07:03:33;1.10;;;1.10;;
16282;SDS011;8249;48.708;9.030;2022-12-29T07:06:00;1.00;;;1.00;;
16282;SDS011;8249;48.708;9.030;2022-12-29T07:08:28;1.37;;;1.27;;
16282;SDS011;8249;48.708;9.030;2022-12-29T07:10:55;1.00;;;1.00;;
16282;SDS011;8249;48.708;9.030;2022-12-29T07:13:22;1.00;;;1.00;;
16282;SDS011;8249;48.708;9.030;2022-12-29T07:15:49;1.20;;;1.20;;
16282;SDS011;8249;48.708;9.030;2022-12-29T07:18:16;1.10;;;1.10;;
16282;SDS011;8249;48.708;9.030;2022-12-29T07:20:43;1.00;;;1.00;;
16282;SDS011;8249;48.708;9.030;2022-12-29T07:23:10;1.00;;;1.00;;
16282;SDS011;8249;48.708;9.030;2022-12-29T07:25:39;1.10;;;1.10;;
16282;SDS011;8249;48.708;9.030;2022-12-29T07:28:06;6.43;;;1.37;;
16282;SDS011;8249;48.708;9.030;2022-12-29T07:30:36;1.30;;;1.30;;
16282;SDS011;8249;48.708;9.030;2022-12-29T07:33:03;1.33;;;1.33;;
16282;SDS011;8249;48.708;9.030;2022-12-29T07:35:30;1.30;;;1.30;;
16282;SDS011;8249;48.708;9.030;2022-12-29T07:37:57;1.30;;;1.30;;
16282;SDS011;8249;48.708;9.030;2022-12-29T07:40:24;1.73;;;1.63;;
16282;SDS011;8249;48.708;9.030;2022-12-29T07:42:53;1.53;;;1.53;;
16282;SDS011;8249;48.708;9.030;2022-12-29T07:45:28;1.23;;;1.23;;
16282;SDS011;8249;48.708;9.030;2022-12-29T07:48:16;1.10;;;1.10;;
16282;SDS011;8249;48.708;9.030;2022-12-29T07:50:43;1.20;;;1.20;;
16282;SDS011;8249;48.708;9.030;2022-12-29T07:53:10;1.20;;;1.20;;
16282;SDS011;8249;48.708;9.030;2022-12-29T07:55:38;1.50;;;1.50;;
16282;SDS011;8249;48.708;9.030;2022-12-29T07:58:06;1.87;;;1.77;;
16282;SDS011;8249;48.708;9.030;2022-12-29T08:00:34;1.77;;;1.57;;
16282;SDS011;8249;48.708;9.030;2022-12-29T08:03:02;1.27;;;1.27;;
16282;SDS011;8249;48.708;9.030;2022-12-29T08:05:29;1.30;;;1.23;;
16282;SDS011;8249;48.708;9.030;2022-12-29T08:07:57;1.20;;;1.20;;
16282;SDS011;8249;48.708;9.030;2022-12-29T08:10:24;1.20;;;1.20;;
16282;SDS011;8249;48.708;9.030;2022-12-29T08:12:53;1.20;;;1.20;;
16282;SDS011;8249;48.708;9.030;2022-12-29T08:15:21;1.20;;;1.20;;
16282;SDS011;8249;48.708;9.030;2022-12-29T08:17:48;1.20;;;1.20;;
16282;SDS011;8249;48.708;9.030;2022-12-29T08:20:15;1.10;;;1.10;;
16282;SDS011;8249;48.708;9.030;2022-12-29T08:22:42;1.23;;;1.23;;
16282;SDS011;8249;48.708;9.030;2022-12-29T08:25:09;1.30;;;1.30;;
16282;SDS011;8249;48.708;9.030;2022-12-29T08:27:36;1.40;;;1.30;;
16282;SDS011;8249;48.708;9.030;2022-12-29T08:30:04;1.37;;;1.37;;
16282;SDS011;8249;48.708;9.030;2022-12-29T08:32:33;1.10;;;1.10;;
16282;SDS011;8249;48.708;9.030;2022-12-29T08:35:00;1.60;;;1.30;;
16282;SDS011;8249;48.708;9.030;2022-12-29T08:37:27;1.13;;;1.13;;
16282;SDS011;8249;48.708;9.030;2022-12-29T08:39:54;1.33;;;1.33;;
16282;SDS011;8249;48.708;9.030;2022-12-29T08:42:21;1.10;;;1.10;;
16282;SDS011;8249;48.708;9.030;2022-12-29T08:44:50;1.30;;;1.30;;
16282;SDS011;8249;48.708;9.030;2022-12-29T08:47:17;1.00;;;1.00;;
16282;SDS011;8249;48.708;9.030;2022-12-29T08:49:45;1.53;;;1.43;;
16282;SDS011;8249;48.708;9.030;2022-12-29T08:52:13;1.27;;;1.27;;
16282;SDS011;8249;48.708;9.030;2022-12-29T08:54:40;1.40;;;1.40;;
16282;SDS011;8249;48.708;9.030;2022-12-29T08:57:07;0.90;;;0.90;;
16282;SDS011;8249;48.708;9.030;2022-12-29T08:59:47;1.60;;;1.60;;
16282;SDS011;8249;48.708;9.030;2022-12-29T09:02:14;1.53;;;1.50;;
16282;SDS011;8249;48.708;9.030;2022-12-29T09:04:41;1.20;;;1.20;;
16282;SDS011;8249;48.708;9.030;2022-12-29T09:07:09;1.10;;;1.10;;
16282;SDS011;8249;48.708;9.030;2022-12-29T09:09:36;1.37;;;1.27;;
16282;SDS011;8249;48.708;9.030;2022-12-29T09:12:04;1.20;;;1.20;;
16282;SDS011;8249;48.708;9.030;2022-12-29T09:14:31;1.73;;;1.63;;
16282;SDS011;8249;48.708;9.030;2022-12-29T09:16:58;1.10;;;1.10;;
16282;SDS011;8249;48.708;9.030;2022-12-29T09:19:43;0.90;;;0.90;;
16282;SDS011;8249;48.708;9.030;2022-12-29T09:22:11;1.20;;;1.20;;
16282;SDS011;8249;48.708;9.030;2022-12-29T09:24:38;1.30;;;1.30;;
16282;SDS011;8249;48.708;9.030;2022-12-29T09:27:05;1.13;;;1.13;;
16282;SDS011;8249;48.708;9.030;2022-12-29T09:29:32;0.90;;;0.90;;
16282;SDS011;8249;48.708;9.030;2022-12-29T09:31:59;0.90;;;0.90;;
16282;SDS011;8249;48.708;9.030;2022-12-29T09:34:25;0.90;;;0.90;;
16282;SDS011;8249;48.708;9.030;2022-12-29T09:36:52;1.43;;;1.43;;
16282;SDS011;8249;48.708;9.030;2022-12-29T09:39:22;1.50;;;1.50;;
16282;SDS011;8249;48.708;9.030;2022-12-29T09:41:52;1.20;;;1.20;;
16282;SDS011;8249;48.708;9.030;2022-12-29T09:44:29;1.00;;;1.00;;
16282;SDS011;8249;48.708;9.030;2022-12-29T09:47:03;1.30;;;1.30;;
16282;SDS011;8249;48.708;9.030;2022-12-29T09:49:37;1.33;;;1.33;;
16282;SDS011;8249;48.708;9.030;2022-12-29T09:52:14;1.20;;;1.20;;
16282;SDS011;8249;48.708;9.030;2022-12-29T09:54:48;0.90;;;0.90;;
16282;SDS011;8249;48.708;9.030;2022-12-29T09:57:20;1.20;;;1.20;;
16282;SDS011;8249;48.708;9.030;2022-12-29T09:59:51;1.20;;;1.20;;
16282;SDS011;8249;48.708;9.030;2022-12-29T10:02:29;1.00;;;1.00;;
16282;SDS011;8249;48.708;9.030;2022-12-29T10:05:00;1.00;;;1.00;;
16282;SDS011;8249;48.708;9.030;2022-12-29T10:07:30;4.60;;;2.00;;
16282;SDS011;8249;48.708;9.030;2022-12-29T10:10:14;1.20;;;1.20;;
16282;SDS011;8249;48.708;9.030;2022-12-29T10:12:56;1.33;;;1.33;;
16282;SDS011;8249;48.708;9.030;2022-12-29T10:15:34;1.10;;;1.10;;
16282;SDS011;8249;48.708;9.030;2022-12-29T10:18:14;1.20;;;1.20;;
16282;SDS011;8249;48.708;9.030;2022-12-29T10:20:59;1.17;;;1.17;;
16282;SDS011;8249;48.708;9.030;2022-12-29T10:23:33;0.90;;;0.90;;
16282;SDS011;8249;48.708;9.030;2022-12-29T10:26:07;1.10;;;1.10;;
16282;SDS011;8249;48.708;9.030;2022-12-29T10:28:40;1.20;;;1.20;;
16282;SDS011;8249;48.708;9.030;2022-12-29T10:31:11;1.93;;;1.83;;
16282;SDS011;8249;48.708;9.030;2022-12-29T10:33:45;1.07;;;1.07;;
16282;SDS011;8249;48.708;9.030;2022-12-29T10:36:16;1.17;;;1.17;;
16282;SDS011;8249;48.708;9.030;2022-12-29T10:38:48;0.90;;;0.90;;
16282;SDS011;8249;48.708;9.030;2022-12-29T10:41:25;1.23;;;1.23;;
16282;SDS011;8249;48.708;9.030;2022-12-29T10:43:58;1.00;;;1.00;;
16282;SDS011;8249;48.708;9.030;2022-12-29T10:46:28;1.20;;;1.20;;
16282;SDS011;8249;48.708;9.030;2022-12-29T10:49:02;0.80;;;0.80;;
16282;SDS011;8249;48.708;9.030;2022-12-29T10:51:30;1.27;;;1.27;;
16282;SDS011;8249;48.708;9.030;2022-12-29T10:54:02;1.47;;;1.47;;
16282;SDS011;8249;48.708;9.030;2022-12-29T10:56:33;0.90;;;0.90;;
16282;SDS011;8249;48.708;9.030;2022-12-29T10:59:04;1.00;;;1.00;;
16282;SDS011;8249;48.708;9.030;2022-12-29T11:01:37;1.20;;;1.20;;
16282;SDS011;8249;48.708;9.030;2022-12-29T11:04:15;1.30;;;1.30;;
16282;SDS011;8249;48.708;9.030;2022-12-29T11:07:05;1.10;;;1.10;;
16282;SDS011;8249;48.708;9.030;2022-12-29T11:09:34;1.30;;;1.30;;
16282;SDS011;8249;48.708;9.030;2022-12-29T11:12:16;3.37;;;1.60;;
16282;SDS011;8249;48.708;9.030;2022-12-29T11:14:46;1.20;;;1.20;;
16282;SDS011;8249;48.708;9.030;2022-12-29T11:17:14;1.17;;;1.17;;
16282;SDS011;8249;48.708;9.030;2022-12-29T11:19:42;1.43;;;1.43;;
16282;SDS011;8249;48.708;9.030;2022-12-29T11:22:14;1.30;;;1.17;;
16282;SDS011;8249;48.708;9.030;2022-12-29T11:24:47;0.90;;;0.90;;
16282;SDS011;8249;48.708;9.030;2022-12-29T11:27:18;1.10;;;1.10;;
16282;SDS011;8249;48.708;9.030;2022-12-29T11:29:51;1.90;;;1.80;;
16282;SDS011;8249;48.708;9.030;2022-12-29T11:32:22;1.20;;;1.20;;
16282;SDS011;8249;48.708;9.030;2022-12-29T11:34:52;1.10;;;1.10;;
16282;SDS011;8249;48.708;9.030;2022-12-29T11:37:19;1.40;;;1.37;;
16282;SDS011;8249;48.708;9.030;2022-12-29T11:39:54;0.93;;;0.93;;
16282;SDS011;8249;48.708;9.030;2022-12-29T11:42:34;1.37;;;1.37;;
16282;SDS011;8249;48.708;9.030;2022-12-29T11:45:03;1.10;;;1.10;;
16282;SDS011;8249;48.708;9.030;2022-12-29T11:47:33;1.77;;;1.70;;
16282;SDS011;8249;48.708;9.030;2022-12-29T11:50:03;1.67;;;1.63;;
16282;SDS011;8249;48.708;9.030;2022-12-29T11:52:33;1.37;;;1.37;;
16282;SDS011;8249;48.708;9.030;2022-12-29T11:55:05;1.00;;;1.00;;
16282;SDS011;8249;48.708;9.030;2022-12-29T11:57:44;1.00;;;1.00;;
16282;SDS011;8249;48.708;9.030;2022-12-29T12:00:14;1.10;;;1.10;;
16282;SDS011;8249;48.708;9.030;2022-12-29T12:02:45;1.20;;;1.20;;
16282;SDS011;8249;48.708;9.030;2022-12-29T12:05:24;0.97;;;0.97;;
16282;SDS011;8249;48.708;9.030;2022-12-29T12:08:00;1.30;;;1.30;;
16282;SDS011;8249;48.708;9.030;2022-12-29T12:10:34;1.40;;;1.40;;
16282;SDS011;8249;48.708;9.030;2022-12-29T12:13:11;0.83;;;0.83;;
16282;SDS011;8249;48.708;9.030;2022-12-29T12:15:46;0.87;;;0.87;;
16282;SDS011;8249;48.708;9.030;2022-12-29T12:18:18;0.90;;;0.90;;
16282;SDS011;8249;48.708;9.030;2022-12-29T12:20:55;1.00;;;1.00;;
16282;SDS011;8249;48.708;9.030;2022-12-29T12:23:28;1.20;;;1.20;;
16282;SDS011;8249;48.708;9.030;2022-12-29T12:26:04;1.13;;;1.13;;
16282;SDS011;8249;48.708;9.030;2022-12-29T12:28:40;1.67;;;1.57;;
16282;SDS011;8249;48.708;9.030;2022-12-29T12:31:17;4.70;;;1.63;;
16282;SDS011;8249;48.708;9.030;2022-12-29T12:33:51;1.17;;;1.17;;
16282;SDS011;8249;48.708;9.030;2022-12-29T12:39:17;1.57;;;1.57;;
16282;SDS011;8249;48.708;9.030;2022-12-29T12:41:53;1.30;;;1.20;;
16282;SDS011;8249;48.708;9.030;2022-12-29T12:44:31;1.40;;;1.40;;
16282;SDS011;8249;48.708;9.030;2022-12-29T12:47:15;1.23;;;1.23;;
16282;SDS011;8249;48.708;9.030;2022-12-29T12:50:11;0.80;;;0.80;;
16282;SDS011;8249;48.708;9.030;2022-12-29T12:53:07;0.90;;;0.90;;
16282;SDS011;8249;48.708;9.030;2022-12-29T12:55:52;1.10;;;1.10;;
16282;SDS011;8249;48.708;9.030;2022-12-29T12:58:39;1.20;;;1.20;;
16282;SDS011;8249;48.708;9.030;2022-12-29T13:01:19;1.13;;;1.00;;
16282;SDS011;8249;48.708;9.030;2022-12-29T13:04:02;1.27;;;1.27;;
16282;SDS011;8249;48.708;9.030;2022-12-29T13:06:47;1.60;;;1.50;;
16282;SDS011;8249;48.708;9.030;2022-12-29T13:09:27;1.83;;;1.73;;
16282;SDS011;8249;48.708;9.030;2022-12-29T13:12:03;1.33;;;1.33;;
16282;SDS011;8249;48.708;9.030;2022-12-29T13:14:40;1.43;;;1.33;;
16282;SDS011;8249;48.708;9.030;2022-12-29T13:17:18;1.50;;;1.37;;
16282;SDS011;8249;48.708;9.030;2022-12-29T13:19:53;1.23;;;1.23;;
16282;SDS011;8249;48.708;9.030;2022-12-29T13:22:30;1.50;;;1.50;;
16282;SDS011;8249;48.708;9.030;2022-12-29T13:25:14;1.23;;;1.23;;
16282;SDS011;8249;48.708;9.030;2022-12-29T13:27:59;1.23;;;1.20;;
16282;SDS011;8249;48.708;9.030;2022-12-29T13:30:32;1.47;;;1.47;;
16282;SDS011;8249;48.708;9.030;2022-12-29T13:33:18;1.37;;;1.37;;
16282;SDS011;8249;48.708;9.030;2022-12-29T13:35:56;1.40;;;1.40;;
16282;SDS011;8249;48.708;9.030;2022-12-29T13:38:29;1.03;;;1.03;;
16282;SDS011;8249;48.708;9.030;2022-12-29T13:41:03;1.77;;;1.63;;
16282;SDS011;8249;48.708;9.030;2022-12-29T13:43:35;0.90;;;0.90;;
16282;SDS011;8249;48.708;9.030;2022-12-29T13:46:06;1.10;;;1.10;;
16282;SDS011;8249;48.708;9.030;2022-12-29T13:48:39;1.53;;;1.43;;
16282;SDS011;8249;48.708;9.030;2022-12-29T13:51:11;1.13;;;1.13;;
16282;SDS011;8249;48.708;9.030;2022-12-29T13:53:41;1.07;;;1.07;;
16282;SDS011;8249;48.708;9.030;2022-12-29T13:56:30;1.30;;;1.30;;
16282;SDS011;8249;48.708;9.030;2022-12-29T13:59:03;1.87;;;1.77;;
16282;SDS011;8249;48.708;9.030;2022-12-29T14:01:39;1.20;;;1.20;;
16282;SDS011;8249;48.708;9.030;2022-12-29T14:04:14;1.00;;;1.00;;
16282;SDS011;8249;48.708;9.030;2022-12-29T14:06:47;0.90;;;0.90;;
16282;SDS011;8249;48.708;9.030;2022-12-29T14:09:41;1.10;;;1.10;;
16282;SDS011;8249;48.708;9.030;2022-12-29T14:12:19;1.00;;;1.00;;
16282;SDS011;8249;48.708;9.030;2022-12-29T14:14:51;1.20;;;1.20;;
16282;SDS011;8249;48.708;9.030;2022-12-29T14:17:21;1.10;;;1.10;;
16282;SDS011;8249;48.708;9.030;2022-12-29T14:19:52;1.17;;;1.17;;
16282;SDS011;8249;48.708;9.030;2022-12-29T14:22:24;1.80;;;1.70;;
16282;SDS011;8249;48.708;9.030;2022-12-29T14:24:52;3.83;;;3.50;;
16282;SDS011;8249;48.708;9.030;2022-12-29T14:33:13;6.73;;;4.23;;
16282;SDS011;8249;48.708;9.030;2022-12-29T14:35:43;2.93;;;2.20;;
16282;SDS011;8249;48.708;9.030;2022-12-29T14:38:16;2.70;;;2.50;;
16282;SDS011;8249;48.708;9.030;2022-12-29T14:40:48;4.17;;;2.87;;
16282;SDS011;8249;48.708;9.030;2022-12-29T14:43:19;1.63;;;1.50;;
16282;SDS011;8249;48.708;9.030;2022-12-29T14:45:52;8.50;;;4.83;;
16282;SDS011;8249;48.708;9.030;2022-12-29T14:48:32;6.43;;;4.80;;
16282;SDS011;8249;48.708;9.030;2022-12-29T14:51:17;12.13;;;6.40;;
16282;SDS011;8249;48.708;9.030;2022-12-29T14:53:47;2.97;;;2.77;;
16282;SDS011;8249;48.708;9.030;2022-12-29T14:56:16;5.40;;;4.47;;
16282;SDS011;8249;48.708;9.030;2022-12-29T14:58:49;7.00;;;3.60;;
16282;SDS011;8249;48.708;9.030;2022-12-29T15:01:20;6.07;;;3.77;;
16282;SDS011;8249;48.708;9.030;2022-12-29T15:03:53;3.03;;;2.73;;
16282;SDS011;8249;48.708;9.030;2022-12-29T15:06:25;1.77;;;1.33;;
16282;SDS011;8249;48.708;9.030;2022-12-29T15:08:56;2.43;;;1.73;;
16282;SDS011;8249;48.708;9.030;2022-12-29T15:11:31;1.27;;;1.27;;
16282;SDS011;8249;48.708;9.030;2022-12-29T15:14:29;1.20;;;1.20;;
16282;SDS011;8249;48.708;9.030;2022-12-29T15:16:59;1.33;;;1.30;;
16282;SDS011;8249;48.708;9.030;2022-12-29T15:19:27;1.00;;;1.00;;
16282;SDS011;8249;48.708;9.030;2022-12-29T15:21:56;0.80;;;0.80;;
16282;SDS011;8249;48.708;9.030;2022-12-29T15:24:23;1.40;;;1.00;;
16282;SDS011;8249;48.708;9.030;2022-12-29T15:26:51;1.43;;;1.43;;
16282;SDS011;8249;48.708;9.030;2022-12-29T15:29:30;1.47;;;1.47;;
16282;SDS011;8249;48.708;9.030;2022-12-29T15:32:15;1.23;;;1.23;;
16282;SDS011;8249;48.708;9.030;2022-12-29T15:34:45;1.27;;;1.27;;
16282;SDS011;8249;48.708;9.030;2022-12-29T15:37:20;1.10;;;1.10;;
16282;SDS011;8249;48.708;9.030;2022-12-29T15:39:49;1.37;;;1.37;;
16282;SDS011;8249;48.708;9.030;2022-12-29T15:42:26;1.10;;;1.10;;
16282;SDS011;8249;48.708;9.030;2022-12-29T15:45:03;1.20;;;1.20;;
16282;SDS011;8249;48.708;9.030;2022-12-29T15:47:31;1.10;;;1.10;;
16282;SDS011;8249;48.708;9.030;2022-12-29T15:49:59;1.20;;;1.20;;
16282;SDS011;8249;48.708;9.030;2022-12-29T15:52:32;1.40;;;1.37;;